Time;durP1;ratioP1;P1;durP2;ratioP2;P2;SDS_P1;SDS_P2;PMS_P1;PMS_P2;Temp;Humidity;BMP_temperature;BMP_pressure;BME280_temperature;BME280_humidity;BME280_pressure;Samples;Min_cycle;Max_cycle;Signal;HPM_P1;HPM_P2
2022/04/03 00:00:21;;;;;;;1.98;1.02;;;;;;;;;;5129728;27;20047;-75
2022/04/03 00:02:52;;;;;;;4.28;1.13;;;;;;;;;;5129074;27;20043;-73
2022/04/03 00:05:22;;;;;;;3.25;1.25;;;;;;;;;;5129656;27;20043;-73
2022/04/03 00:07:51;;;;;;;3.17;1.33;;;;;;;;;;5127849;27;20047;-73
2022/04/03 00:10:22;;;;;;;2.45;1.00;;;;;;;;;;5130112;27;20050;-73
2022/04/03 00:12:53;;;;;;;1.50;0.93;;;;;;;;;;5129876;27;20501;-74
2022/04/03 00:15:23;;;;;;;2.35;1.23;;;;;;;;;;5128916;27;20051;-74
2022/04/03 00:17:53;;;;;;;6.78;1.30;;;;;;;;;;5129984;27;20383;-74
2022/04/03 00:20:23;;;;;;;3.30;1.23;;;;;;;;;;5111559;27;20039;-73
2022/04/03 00:22:53;;;;;;;2.67;1.10;;;;;;;;;;5129363;27;20051;-74
2022/04/03 00:25:23;;;;;;;4.55;1.00;;;;;;;;;;5129744;27;20043;-73
2022/04/03 00:27:53;;;;;;;1.52;1.10;;;;;;;;;;5110453;27;20054;-73
2022/04/03 00:30:23;;;;;;;1.40;1.00;;;;;;;;;;5127695;27;20569;-74
2022/04/03 00:32:53;;;;;;;3.80;1.10;;;;;;;;;;5128682;27;20055;-73
2022/04/03 00:35:23;;;;;;;2.30;1.30;;;;;;;;;;5129267;27;20058;-74
2022/04/03 00:37:53;;;;;;;6.20;1.33;;;;;;;;;;5128848;27;20058;-73
2022/04/03 00:40:26;;;;;;;4.43;1.58;;;;;;;;;;5128657;27;20108;-73
2022/04/03 00:42:57;;;;;;;4.20;1.45;;;;;;;;;;5110025;27;20055;-73
2022/04/03 00:45:27;;;;;;;2.08;1.40;;;;;;;;;;5124973;27;20575;-74
2022/04/03 00:47:57;;;;;;;2.58;1.60;;;;;;;;;;5128844;27;20047;-74
2022/04/03 00:50:27;;;;;;;3.65;2.28;;;;;;;;;;5129150;27;20043;-73
2022/04/03 00:52:57;;;;;;;4.93;1.92;;;;;;;;;;5128817;27;20047;-73
2022/04/03 00:55:28;;;;;;;1.83;1.60;;;;;;;;;;5127875;27;20051;-75
2022/04/03 00:57:58;;;;;;;;;;;;;;;;;;5128928;27;20058;-75
2022/04/03 01:00:29;;;;;;;2.00;1.63;;;;;;;;;;5127811;27;20512;-75
2022/04/03 01:02:58;;;;;;;2.70;1.70;;;;;;;;;;5128291;27;20035;-74
2022/04/03 01:05:29;;;;;;;2.38;1.65;;;;;;;;;;5128636;27;20047;-74
2022/04/03 01:07:58;;;;;;;2.05;1.52;;;;;;;;;;5128723;27;20054;-74
2022/04/03 01:10:29;;;;;;;3.30;1.65;;;;;;;;;;5128957;27;20043;-74
2022/04/03 01:13:00;;;;;;;4.35;1.85;;;;;;;;;;5127353;27;20429;-73
2022/04/03 01:15:33;;;;;;;4.00;1.25;;;;;;;;;;5128513;27;20049;-73
2022/04/03 01:18:03;;;;;;;2.75;1.50;;;;;;;;;;5127186;27;20432;-73
2022/04/03 01:20:35;;;;;;;5.45;1.70;;;;;;;;;;5127964;27;20046;-74
2022/04/03 01:23:05;;;;;;;4.85;2.20;;;;;;;;;;5126733;27;20055;-73
2022/04/03 01:25:35;;;;;;;3.60;1.73;;;;;;;;;;5126851;27;20050;-73
2022/04/03 01:28:05;;;;;;;3.38;1.60;;;;;;;;;;5129716;27;20047;-74
2022/04/03 01:30:35;;;;;;;2.97;1.60;;;;;;;;;;5128114;27;20050;-74
2022/04/03 01:33:05;;;;;;;4.65;1.70;;;;;;;;;;5127854;27;20506;-75
2022/04/03 01:35:35;;;;;;;3.20;1.60;;;;;;;;;;5127091;27;20065;-75
2022/04/03 01:38:05;;;;;;;3.45;1.90;;;;;;;;;;5127645;27;20057;-74
2022/04/03 01:40:35;;;;;;;3.33;1.60;;;;;;;;;;5126364;27;20050;-73
2022/04/03 01:43:11;;;;;;;2.53;1.98;;;;;;;;;;5126126;27;20073;-73
2022/04/03 01:45:42;;;;;;;4.13;1.90;;;;;;;;;;5108510;27;20055;-72
2022/04/03 01:48:12;;;;;;;4.88;1.88;;;;;;;;;;5127648;27;20051;-74
2022/04/03 01:50:43;;;;;;;3.10;1.40;;;;;;;;;;5128460;27;20050;-73
2022/04/03 01:53:13;;;;;;;4.60;1.58;;;;;;;;;;5127445;27;20046;-74
2022/04/03 01:55:44;;;;;;;4.88;1.80;;;;;;;;;;5109769;27;20051;-74
2022/04/03 01:58:15;;;;;;;3.70;1.73;;;;;;;;;;5127271;27;20039;-72
2022/04/03 02:00:46;;;;;;;5.72;1.67;;;;;;;;;;5127934;27;20054;-73
2022/04/03 02:03:17;;;;;;;3.03;1.35;;;;;;;;;;5126625;27;20051;-73
2022/04/03 02:05:48;;;;;;;4.30;1.58;;;;;;;;;;5126026;27;20413;-74
2022/04/03 02:08:19;;;;;;;4.45;1.88;;;;;;;;;;5127656;27;20047;-74
2022/04/03 02:10:49;;;;;;;6.05;1.90;;;;;;;;;;5127735;27;20808;-73
2022/04/03 02:13:19;;;;;;;8.00;1.92;;;;;;;;;;5128228;27;20051;-73
2022/04/03 02:15:49;;;;;;;11.10;1.80;;;;;;;;;;5125813;27;20047;-73
2022/04/03 02:18:19;;;;;;;3.85;1.90;;;;;;;;;;5127857;27;20046;-73
2022/04/03 02:20:49;;;;;;;11.65;2.00;;;;;;;;;;5127651;27;20062;-76
2022/04/03 02:23:19;;;;;;;2.58;1.63;;;;;;;;;;5127301;27;20050;-73
2022/04/03 02:25:52;;;;;;;3.63;1.63;;;;;;;;;;5108185;28;20063;-73
2022/04/03 02:28:23;;;;;;;4.32;1.52;;;;;;;;;;5127813;27;20047;-73
2022/04/03 02:30:54;;;;;;;2.50;1.55;;;;;;;;;;5108308;27;20054;-74
2022/04/03 02:33:25;;;;;;;2.75;1.40;;;;;;;;;;5127649;27;20055;-74
2022/04/03 02:35:55;;;;;;;1.77;1.23;;;;;;;;;;5127667;28;20058;-76
2022/04/03 02:38:25;;;;;;;3.03;1.23;;;;;;;;;;5127832;28;20425;-74
2022/04/03 02:40:54;;;;;;;4.80;1.75;;;;;;;;;;5126888;28;20047;-74
2022/04/03 02:43:24;;;;;;;2.03;1.27;;;;;;;;;;5126589;28;20043;-75
2022/04/03 02:45:54;;;;;;;1.95;1.10;;;;;;;;;;5126862;28;20047;-74
2022/04/03 02:48:24;;;;;;;3.45;1.02;;;;;;;;;;5127062;28;20051;-74
2022/04/03 02:50:54;;;;;;;2.83;1.17;;;;;;;;;;5126825;28;20047;-74
2022/04/03 02:53:25;;;;;;;3.05;0.90;;;;;;;;;;5126699;28;20050;-74
2022/04/03 02:55:55;;;;;;;2.08;0.90;;;;;;;;;;5126796;28;20043;-75
2022/04/03 02:58:26;;;;;;;3.53;1.08;;;;;;;;;;5127154;28;20047;-74
2022/04/03 03:00:56;;;;;;;5.70;1.30;;;;;;;;;;5126724;28;20058;-73
2022/04/03 03:03:27;;;;;;;2.83;1.25;;;;;;;;;;5126696;28;20050;-75
2022/04/03 03:05:57;;;;;;;;;;;;;;;;;;5127215;28;20536;-74
2022/04/03 03:08:27;;;;;;;2.13;1.08;;;;;;;;;;5126971;28;19923;-73
2022/04/03 03:10:57;;;;;;;2.33;0.90;;;;;;;;;;5126586;28;20058;-73
2022/04/03 03:13:28;;;;;;;;;;;;;;;;;;5126258;28;20508;-73
2022/04/03 03:15:58;;;;;;;1.58;0.93;;;;;;;;;;5126650;28;20290;-73
2022/04/03 03:18:28;;;;;;;1.77;0.95;;;;;;;;;;5126772;28;20057;-73
2022/04/03 03:20:58;;;;;;;3.88;0.93;;;;;;;;;;5125311;28;20047;-74
2022/04/03 03:23:29;;;;;;;2.08;1.00;;;;;;;;;;5126624;28;20498;-73
2022/04/03 03:25:59;;;;;;;1.90;0.90;;;;;;;;;;5126712;28;20055;-77
2022/04/03 03:28:29;;;;;;;2.92;1.00;;;;;;;;;;5126270;28;20047;-74
2022/04/03 03:30:59;;;;;;;2.33;0.70;;;;;;;;;;5126293;28;20054;-73
2022/04/03 03:33:29;;;;;;;2.75;1.15;;;;;;;;;;5107596;28;20063;-73
2022/04/03 03:35:59;;;;;;;2.58;1.13;;;;;;;;;;5126853;28;20065;-74
2022/04/03 03:38:29;;;;;;;2.47;1.00;;;;;;;;;;5107217;28;20050;-73
2022/04/03 03:40:59;;;;;;;1.73;0.80;;;;;;;;;;5127339;27;20055;-74
2022/04/03 03:43:29;;;;;;;2.85;0.85;;;;;;;;;;5131503;27;20039;-74
2022/04/03 03:45:59;;;;;;;3.53;1.10;;;;;;;;;;5129426;27;20039;-73
2022/04/03 03:48:30;;;;;;;2.23;0.90;;;;;;;;;;5130114;27;20055;-74
2022/04/03 03:50:59;;;;;;;1.55;0.60;;;;;;;;;;5095731;27;20047;-74
2022/04/03 03:53:31;;;;;;;2.13;0.77;;;;;;;;;;5128956;27;20440;-74
2022/04/03 03:56:01;;;;;;;3.53;0.90;;;;;;;;;;5129788;27;20047;-78
2022/04/03 03:58:31;;;;;;;2.35;1.05;;;;;;;;;;5130059;27;20054;-75
2022/04/03 04:01:01;;;;;;;2.17;0.70;;;;;;;;;;5111042;27;20090;-73
2022/04/03 04:03:31;;;;;;;5.97;0.80;;;;;;;;;;5129943;27;20054;-74
2022/04/03 04:06:01;;;;;;;2.45;1.20;;;;;;;;;;5130252;27;20055;-75
2022/04/03 04:08:31;;;;;;;3.47;1.45;;;;;;;;;;5109970;27;20066;-75
2022/04/03 04:11:01;;;;;;;5.07;1.00;;;;;;;;;;5129343;27;20405;-73
2022/04/03 04:13:33;;;;;;;2.25;1.15;;;;;;;;;;5129709;27;20413;-74
2022/04/03 04:16:03;;;;;;;5.80;1.10;;;;;;;;;;5110241;27;20058;-74
2022/04/03 04:18:33;;;;;;;2.63;0.80;;;;;;;;;;5129034;27;20070;-73
2022/04/03 04:21:05;;;;;;;2.30;0.73;;;;;;;;;;5129122;27;20047;-74
2022/04/03 04:23:36;;;;;;;2.92;0.85;;;;;;;;;;5129658;27;20059;-73
2022/04/03 04:26:06;;;;;;;5.40;0.90;;;;;;;;;;5128401;27;20051;-73
2022/04/03 04:28:37;;;;;;;7.55;0.90;;;;;;;;;;5129713;27;20047;-74
2022/04/03 04:31:07;;;;;;;3.78;1.10;;;;;;;;;;5110029;27;20043;-74
2022/04/03 04:33:36;;;;;;;5.53;0.93;;;;;;;;;;5129579;27;20391;-74
2022/04/03 04:36:07;;;;;;;3.40;0.63;;;;;;;;;;5128798;27;20043;-74
2022/04/03 04:38:37;;;;;;;1.55;0.85;;;;;;;;;;5129578;27;20058;-74
2022/04/03 04:41:07;;;;;;;6.00;0.93;;;;;;;;;;5128935;27;20055;-75
2022/04/03 04:43:38;;;;;;;2.55;0.80;;;;;;;;;;5129682;27;20047;-74
2022/04/03 04:46:09;;;;;;;4.88;0.90;;;;;;;;;;5129087;27;20039;-74
2022/04/03 04:48:38;;;;;;;1.50;0.80;;;;;;;;;;5129259;27;20498;-74
2022/04/03 04:51:09;;;;;;;4.78;1.00;;;;;;;;;;5129975;27;20685;-74
2022/04/03 04:53:40;;;;;;;2.05;0.75;;;;;;;;;;5129752;27;20689;-74
2022/04/03 04:56:12;;;;;;;2.22;0.90;;;;;;;;;;5154209;27;20042;-74
2022/04/03 04:58:42;;;;;;;3.20;0.98;;;;;;;;;;5155162;27;20029;-73
2022/04/03 05:01:12;;;;;;;5.28;0.95;;;;;;;;;;5155298;27;20023;-74
2022/04/03 05:03:42;;;;;;;2.97;1.02;;;;;;;;;;5155118;27;20035;-74
2022/04/03 05:06:15;;;;;;;2.88;0.80;;;;;;;;;;5155187;27;20074;-74
2022/04/03 05:08:46;;;;;;;4.45;1.10;;;;;;;;;;5132319;27;20078;-72
2022/04/03 05:11:16;;;;;;;2.20;0.70;;;;;;;;;;5128820;27;20046;-73
2022/04/03 05:13:47;;;;;;;2.05;0.77;;;;;;;;;;5129079;27;20050;-73
2022/04/03 05:16:17;;;;;;;3.23;0.93;;;;;;;;;;5110083;27;20050;-73
2022/04/03 05:18:48;;;;;;;2.80;0.77;;;;;;;;;;5128003;27;20288;-74
2022/04/03 05:21:18;;;;;;;6.57;0.70;;;;;;;;;;5109465;27;20059;-72
2022/04/03 05:23:47;;;;;;;7.68;1.27;;;;;;;;;;5108921;27;20312;-74
2022/04/03 05:26:18;;;;;;;3.75;0.80;;;;;;;;;;5128239;27;20433;-73
2022/04/03 05:28:48;;;;;;;2.63;1.00;;;;;;;;;;5109963;27;20055;-74
2022/04/03 05:31:19;;;;;;;4.35;0.70;;;;;;;;;;5128035;27;20043;-74
2022/04/03 05:33:48;;;;;;;4.30;0.98;;;;;;;;;;5127727;27;20493;-79
2022/04/03 05:36:18;;;;;;;3.67;0.77;;;;;;;;;;5127373;27;20425;-74
2022/04/03 05:38:49;;;;;;;3.88;0.85;;;;;;;;;;5109393;27;20054;-74
2022/04/03 05:41:18;;;;;;;1.80;0.80;;;;;;;;;;5128219;27;20046;-74
2022/04/03 05:43:55;;;;;;;3.90;0.70;;;;;;;;;;5127888;27;20505;-74
2022/04/03 05:46:25;;;;;;;3.83;0.77;;;;;;;;;;5127461;27;20047;-74
2022/04/03 05:48:55;;;;;;;4.20;0.80;;;;;;;;;;5128290;27;21077;-72
2022/04/03 05:51:24;;;;;;;2.63;0.90;;;;;;;;;;5127704;27;20046;-74
2022/04/03 05:53:54;;;;;;;3.03;0.68;;;;;;;;;;5127558;27;20491;-74
2022/04/03 05:56:27;;;;;;;3.72;0.90;;;;;;;;;;5127447;27;20043;-75
2022/04/03 05:58:58;;;;;;;3.53;0.70;;;;;;;;;;5127864;27;20823;-75
2022/04/03 06:01:28;;;;;;;6.57;0.90;;;;;;;;;;5128108;27;20509;-73
2022/04/03 06:03:58;;;;;;;6.32;0.90;;;;;;;;;;5109098;27;20051;-73
2022/04/03 06:06:29;;;;;;;2.50;0.75;;;;;;;;;;5128008;27;20043;-74
2022/04/03 06:08:58;;;;;;;4.05;0.80;;;;;;;;;;5127286;27;20615;-74
2022/04/03 06:11:28;;;;;;;5.68;0.90;;;;;;;;;;5125792;27;20058;-75
2022/04/03 06:13:58;;;;;;;4.82;1.02;;;;;;;;;;5127517;27;20611;-74
2022/04/03 06:16:29;;;;;;;2.17;0.93;;;;;;;;;;5108554;27;20051;-74
2022/04/03 06:18:58;;;;;;;7.88;1.02;;;;;;;;;;5126704;27;20051;-74
2022/04/03 06:21:28;;;;;;;2.65;0.70;;;;;;;;;;5127225;27;20039;-74
2022/04/03 06:23:58;;;;;;;2.03;0.52;;;;;;;;;;5127458;27;20043;-75
2022/04/03 06:26:28;;;;;;;6.80;0.82;;;;;;;;;;5126850;27;20039;-74
2022/04/03 06:28:58;;;;;;;9.10;0.90;;;;;;;;;;5127520;27;20055;-75
2022/04/03 06:31:30;;;;;;;2.65;0.70;;;;;;;;;;5127215;27;20050;-75
2022/04/03 06:34:02;;;;;;;3.85;0.90;;;;;;;;;;5126834;27;20047;-74
2022/04/03 06:36:32;;;;;;;4.07;1.08;;;;;;;;;;5127239;28;20054;-74
2022/04/03 06:39:02;;;;;;;3.65;0.80;;;;;;;;;;5127523;28;20497;-74
2022/04/03 06:41:32;;;;;;;9.23;0.80;;;;;;;;;;5127280;28;20047;-75
2022/04/03 06:44:03;;;;;;;3.65;0.80;;;;;;;;;;5126721;28;20425;-74
2022/04/03 06:46:34;;;;;;;2.78;0.73;;;;;;;;;;5127079;28;20058;-74
2022/04/03 06:49:05;;;;;;;2.63;0.80;;;;;;;;;;5108551;28;20543;-74
2022/04/03 06:51:35;;;;;;;5.82;0.85;;;;;;;;;;5127274;28;20062;-74
2022/04/03 06:54:05;;;;;;;4.43;0.65;;;;;;;;;;5126009;28;20051;-74
2022/04/03 06:56:34;;;;;;;0.80;0.52;;;;;;;;;;5126932;28;20592;-74
2022/04/03 06:59:04;;;;;;;3.17;0.63;;;;;;;;;;5108795;28;20055;-74
2022/04/03 07:01:34;;;;;;;2.75;0.82;;;;;;;;;;5126323;28;20051;-75
2022/04/03 07:04:05;;;;;;;4.00;0.80;;;;;;;;;;5126430;28;20032;-75
2022/04/03 07:06:34;;;;;;;6.07;1.20;;;;;;;;;;5127033;28;20058;-75
2022/04/03 07:09:05;;;;;;;3.80;0.75;;;;;;;;;;5126708;28;20051;-74
2022/04/03 07:11:34;;;;;;;4.15;0.82;;;;;;;;;;5107944;28;20066;-75
2022/04/03 07:14:04;;;;;;;6.22;0.90;;;;;;;;;;5127176;27;20055;-79
2022/04/03 07:16:35;;;;;;;1.60;0.68;;;;;;;;;;5129158;27;20530;-74
2022/04/03 07:19:05;;;;;;;5.07;0.63;;;;;;;;;;5130511;27;20417;-74
2022/04/03 07:21:35;;;;;;;3.85;1.02;;;;;;;;;;5130805;27;20047;-74
2022/04/03 07:24:05;;;;;;;7.75;0.80;;;;;;;;;;5130292;27;20051;-74
2022/04/03 07:26:36;;;;;;;2.63;0.70;;;;;;;;;;5130104;27;20540;-75
2022/04/03 07:29:06;;;;;;;4.68;0.98;;;;;;;;;;5112111;27;20047;-75
2022/04/03 07:31:36;;;;;;;4.13;1.13;;;;;;;;;;5130344;27;20428;-76
2022/04/03 07:34:06;;;;;;;2.88;1.00;;;;;;;;;;5111654;27;20051;-75
2022/04/03 07:36:36;;;;;;;5.55;1.33;;;;;;;;;;5131160;27;20039;-74
2022/04/03 07:39:07;;;;;;;2.63;1.00;;;;;;;;;;5129969;27;20051;-74
2022/04/03 07:41:40;;;;;;;16.30;1.08;;;;;;;;;;5130171;27;20051;-74
2022/04/03 07:44:11;;;;;;;3.03;0.88;;;;;;;;;;5130182;27;20047;-75
2022/04/03 07:46:43;;;;;;;6.13;0.70;;;;;;;;;;5129832;27;20719;-74
2022/04/03 07:49:13;;;;;;;5.13;0.90;;;;;;;;;;5130289;27;20051;-75
2022/04/03 07:51:44;;;;;;;4.05;0.90;;;;;;;;;;5129549;27;20058;-75
2022/04/03 07:54:19;;;;;;;5.20;1.17;;;;;;;;;;5130237;27;20069;-74
2022/04/03 07:56:50;;;;;;;22.05;2.25;;;;;;;;;;5130102;27;20080;-75
2022/04/03 07:59:20;;;;;;;;;;;;;;;;;;5131099;27;20066;-75
2022/04/03 08:01:52;;;;;;;3.70;0.85;;;;;;;;;;5128906;27;19933;-75
2022/04/03 08:04:24;;;;;;;3.13;1.00;;;;;;;;;;5129610;27;20054;-75
2022/04/03 08:06:53;;;;;;;;;;;;;;;;;;5130536;27;20055;-75
2022/04/03 08:09:25;;;;;;;2.83;1.02;;;;;;;;;;5129890;27;19919;-74
2022/04/03 08:11:55;;;;;;;3.25;0.70;;;;;;;;;;5110729;27;20714;-76
2022/04/03 08:14:27;;;;;;;7.30;0.95;;;;;;;;;;5130431;27;20046;-74
2022/04/03 08:16:59;;;;;;;3.17;0.70;;;;;;;;;;5129901;27;20066;-74
2022/04/03 08:19:30;;;;;;;4.70;0.83;;;;;;;;;;5129322;27;20054;-74
2022/04/03 08:22:00;;;;;;;6.73;0.83;;;;;;;;;;5128883;27;20124;-74
2022/04/03 08:24:30;;;;;;;3.15;0.88;;;;;;;;;;5128631;27;20293;-74
2022/04/03 08:27:00;;;;;;;7.50;0.90;;;;;;;;;;5128394;27;20526;-74
2022/04/03 08:29:30;;;;;;;3.15;0.70;;;;;;;;;;5109963;27;20065;-75
2022/04/03 08:32:00;;;;;;;4.85;0.98;;;;;;;;;;5129306;27;20051;-74
2022/04/03 08:34:30;;;;;;;3.10;0.73;;;;;;;;;;5129022;27;20388;-74
2022/04/03 08:37:16;;;;;;;3.35;0.90;;;;;;;;;;5129974;27;20061;-74
2022/04/03 08:39:46;;;;;;;6.90;0.70;;;;;;;;;;5128801;27;20047;-73
2022/04/03 08:42:16;;;;;;;3.05;0.77;;;;;;;;;;5128528;27;20047;-74
2022/04/03 08:44:46;;;;;;;1.00;0.47;;;;;;;;;;5128957;27;20406;-74
2022/04/03 08:47:17;;;;;;;1.80;0.85;;;;;;;;;;5110293;27;20054;-73
2022/04/03 08:49:48;;;;;;;5.22;0.50;;;;;;;;;;5128350;27;20046;-74
2022/04/03 08:52:18;;;;;;;3.67;0.60;;;;;;;;;;5128872;27;20035;-74
2022/04/03 08:54:48;;;;;;;3.75;0.88;;;;;;;;;;5128656;27;20512;-74
2022/04/03 08:57:18;;;;;;;2.47;0.95;;;;;;;;;;5129143;27;20054;-74
2022/04/03 08:59:51;;;;;;;3.58;0.68;;;;;;;;;;5110716;27;20046;-74
2022/04/03 09:02:22;;;;;;;2.50;0.70;;;;;;;;;;5128955;27;20501;-74
2022/04/03 09:04:51;;;;;;;2.78;0.60;;;;;;;;;;5128062;27;20058;-74
2022/04/03 09:07:21;;;;;;;2.53;0.55;;;;;;;;;;5129060;27;20047;-74
2022/04/03 09:10:08;;;;;;;4.57;0.80;;;;;;;;;;5130096;27;20042;-73
2022/04/03 09:12:49;;;;;;;4.80;0.70;;;;;;;;;;5128656;27;20039;-74
2022/04/03 09:15:21;;;;;;;4.10;0.70;;;;;;;;;;5127904;27;20417;-74
2022/04/03 09:18:00;;;;;;;3.10;0.70;;;;;;;;;;5128939;27;20042;-74
2022/04/03 09:20:33;;;;;;;7.53;0.95;;;;;;;;;;5128299;27;20039;-74
2022/04/03 09:23:05;;;;;;;4.97;1.13;;;;;;;;;;5128297;27;20051;-74
2022/04/03 09:25:40;;;;;;;6.53;0.82;;;;;;;;;;5128650;27;20058;-73
2022/04/03 09:28:14;;;;;;;5.00;0.80;;;;;;;;;;5127422;27;20054;-73
2022/04/03 09:30:47;;;;;;;6.45;0.57;;;;;;;;;;5127672;27;20497;-74
2022/04/03 09:33:20;;;;;;;4.20;0.88;;;;;;;;;;5128172;27;20409;-74
2022/04/03 09:36:03;;;;;;;8.02;0.70;;;;;;;;;;5127525;27;20509;-74
2022/04/03 09:38:37;;;;;;;4.93;0.73;;;;;;;;;;5127630;27;20054;-73
2022/04/03 09:41:07;;;;;;;3.22;0.80;;;;;;;;;;5127616;27;20520;-73
2022/04/03 09:43:41;;;;;;;6.95;0.90;;;;;;;;;;5127892;27;20051;-74
2022/04/03 09:46:12;;;;;;;3.60;0.60;;;;;;;;;;5128395;27;20043;-73
2022/04/03 09:48:43;;;;;;;7.88;1.00;;;;;;;;;;5108711;27;20065;-74
2022/04/03 09:51:22;;;;;;;4.43;0.52;;;;;;;;;;5128385;27;20509;-74
2022/04/03 09:54:03;;;;;;;3.65;1.20;;;;;;;;;;5127551;27;20047;-74
2022/04/03 09:56:34;;;;;;;4.00;0.90;;;;;;;;;;5127503;27;20047;-78
2022/04/03 09:59:09;;;;;;;5.47;1.52;;;;;;;;;;5127435;27;20050;-74
2022/04/03 10:01:41;;;;;;;2.28;0.73;;;;;;;;;;5127614;27;20043;-74
2022/04/03 10:04:16;;;;;;;5.47;1.05;;;;;;;;;;5127799;27;20051;-75
2022/04/03 10:06:46;;;;;;;5.82;1.00;;;;;;;;;;5127270;27;20465;-74
2022/04/03 10:09:18;;;;;;;5.72;1.10;;;;;;;;;;5126767;27;20513;-74
2022/04/03 10:11:48;;;;;;;2.42;0.95;;;;;;;;;;5126880;27;20509;-75
2022/04/03 10:14:20;;;;;;;4.90;1.15;;;;;;;;;;5127271;27;20053;-74
2022/04/03 10:16:51;;;;;;;3.50;0.80;;;;;;;;;;5127331;27;20054;-74
2022/04/03 10:19:21;;;;;;;9.27;1.00;;;;;;;;;;5126940;27;20050;-74
2022/04/03 10:21:56;;;;;;;7.43;1.08;;;;;;;;;;5127461;27;20039;-74
2022/04/03 10:24:29;;;;;;;4.05;0.82;;;;;;;;;;5109173;27;20518;-76
2022/04/03 10:27:12;;;;;;;3.03;0.85;;;;;;;;;;5124914;27;20049;-74
2022/04/03 10:29:44;;;;;;;10.25;0.95;;;;;;;;;;5128240;27;20394;-74
2022/04/03 10:32:27;;;;;;;3.85;0.60;;;;;;;;;;5112857;27;20058;-75
2022/04/03 10:35:03;;;;;;;1.75;0.60;;;;;;;;;;5106994;28;20636;-73
2022/04/03 10:37:34;;;;;;;5.03;1.10;;;;;;;;;;5106050;28;20051;-74
2022/04/03 10:40:16;;;;;;;11.45;2.00;;;;;;;;;;5087921;28;20612;-75
2022/04/03 10:42:53;;;;;;;11.20;1.80;;;;;;;;;;5107129;28;20067;-73
2022/04/03 10:45:27;;;;;;;3.95;1.13;;;;;;;;;;5106958;28;20043;-73
2022/04/03 10:48:24;;;;;;;6.38;1.15;;;;;;;;;;5106643;28;20048;-73
2022/04/03 10:51:05;;;;;;;2.65;0.88;;;;;;;;;;5110903;28;20398;-74
2022/04/03 10:53:47;;;;;;;4.80;0.97;;;;;;;;;;5110779;28;20103;-74
2022/04/03 10:56:25;;;;;;;8.68;0.80;;;;;;;;;;5110413;28;20056;-74
2022/04/03 10:58:57;;;;;;;7.43;0.90;;;;;;;;;;5110721;28;20343;-75
2022/04/03 11:01:32;;;;;;;4.07;0.90;;;;;;;;;;5125860;27;20046;-74
2022/04/03 11:04:11;;;;;;;7.80;0.98;;;;;;;;;;5130303;27;20079;-74
2022/04/03 11:06:45;;;;;;;8.10;0.98;;;;;;;;;;5128055;27;20413;-74
2022/04/03 11:09:23;;;;;;;5.25;1.30;;;;;;;;;;5111450;27;20047;-74
2022/04/03 11:11:55;;;;;;;4.97;1.10;;;;;;;;;;5130848;27;20050;-74
2022/04/03 11:14:57;;;;;;;2.28;1.00;;;;;;;;;;5131243;27;20043;-74
2022/04/03 11:17:48;;;;;;;3.13;0.90;;;;;;;;;;5130820;27;20102;-75
2022/04/03 11:20:39;;;;;;;4.32;1.10;;;;;;;;;;5130536;27;20047;-74
2022/04/03 11:23:14;;;;;;;2.55;0.85;;;;;;;;;;5130764;27;20043;-74
2022/04/03 11:25:46;;;;;;;9.10;1.65;;;;;;;;;;5130950;27;20043;-74
2022/04/03 11:28:17;;;;;;;4.72;1.30;;;;;;;;;;5130420;27;20039;-74
2022/04/03 11:30:47;;;;;;;;;;;;;;;;;;5130813;27;20069;-74
2022/04/03 11:33:17;;;;;;;11.63;1.58;;;;;;;;;;5129902;27;19930;-74
2022/04/03 11:35:48;;;;;;;5.00;1.02;;;;;;;;;;5129031;27;20783;-74
2022/04/03 11:38:19;;;;;;;5.07;0.85;;;;;;;;;;5130258;27;20081;-74
2022/04/03 11:40:49;;;;;;;4.80;0.98;;;;;;;;;;5112275;27;20050;-72
2022/04/03 11:43:19;;;;;;;9.10;1.52;;;;;;;;;;5130010;27;20046;-73
2022/04/03 11:45:55;;;;;;;8.60;1.10;;;;;;;;;;5111654;27;20047;-74
2022/04/03 11:48:31;;;;;;;6.90;1.10;;;;;;;;;;5130754;27;20050;-74
2022/04/03 11:51:13;;;;;;;2.40;0.68;;;;;;;;;;5129103;27;20047;-75
2022/04/03 11:53:46;;;;;;;4.28;0.85;;;;;;;;;;5130198;27;20498;-74
2022/04/03 11:56:20;;;;;;;2.90;0.95;;;;;;;;;;5110928;27;20059;-75
2022/04/03 11:58:57;;;;;;;3.75;1.05;;;;;;;;;;5129553;27;20425;-74
2022/04/03 12:01:31;;;;;;;3.15;0.98;;;;;;;;;;5129491;27;20050;-74
2022/04/03 12:04:08;;;;;;;4.40;0.90;;;;;;;;;;5128798;27;20058;-74
2022/04/03 12:06:40;;;;;;;3.03;0.85;;;;;;;;;;5130035;27;20046;-74
2022/04/03 12:09:15;;;;;;;8.10;1.08;;;;;;;;;;5130015;27;20073;-74
2022/04/03 12:11:53;;;;;;;6.13;0.98;;;;;;;;;;5129550;27;20055;-74
2022/04/03 12:14:32;;;;;;;8.40;1.10;;;;;;;;;;5129659;27;20529;-74
2022/04/03 12:17:03;;;;;;;5.57;1.20;;;;;;;;;;5128550;27;20515;-74
2022/04/03 12:19:44;;;;;;;6.15;1.20;;;;;;;;;;5110110;27;20062;-75
2022/04/03 12:22:18;;;;;;;8.00;1.30;;;;;;;;;;5123247;27;20043;-73
2022/04/03 12:24:53;;;;;;;11.73;1.25;;;;;;;;;;5127917;27;20047;-72
2022/04/03 12:27:30;;;;;;;5.97;1.00;;;;;;;;;;5129899;27;20054;-72
2022/04/03 12:30:00;;;;;;;6.93;1.27;;;;;;;;;;5129241;27;20665;-73
2022/04/03 12:32:36;;;;;;;6.18;1.67;;;;;;;;;;5129627;27;20486;-72
2022/04/03 12:35:09;;;;;;;11.35;1.33;;;;;;;;;;5128281;27;20402;-74
2022/04/03 12:37:41;;;;;;;10.40;1.65;;;;;;;;;;5129368;27;20510;-73
2022/04/03 12:40:15;;;;;;;8.15;1.17;;;;;;;;;;5129119;27;20417;-73
2022/04/03 12:42:46;;;;;;;10.45;1.13;;;;;;;;;;5129362;27;20409;-73
2022/04/03 12:45:24;;;;;;;4.13;0.93;;;;;;;;;;5110411;27;20051;-74
2022/04/03 12:48:00;;;;;;;7.57;1.45;;;;;;;;;;5125433;27;20043;-73
2022/04/03 12:50:31;;;;;;;6.38;1.65;;;;;;;;;;5129575;27;20043;-73
2022/04/03 12:53:03;;;;;;;5.82;1.50;;;;;;;;;;5129199;27;20414;-73
2022/04/03 12:55:35;;;;;;;7.22;1.60;;;;;;;;;;5129510;27;20047;-74
2022/04/03 12:58:24;;;;;;;3.90;1.20;;;;;;;;;;5129302;27;20039;-73
2022/04/03 13:01:18;;;;;;;5.27;1.57;;;;;;;;;;5111423;27;20039;-75
2022/04/03 13:03:51;;;;;;;4.90;1.60;;;;;;;;;;5109500;27;20047;-74
2022/04/03 13:06:28;;;;;;;4.82;1.60;;;;;;;;;;5128772;27;20047;-74
2022/04/03 13:09:00;;;;;;;6.20;1.60;;;;;;;;;;5129094;27;20058;-74
2022/04/03 13:11:30;;;;;;;9.15;1.77;;;;;;;;;;5118628;27;20074;-74
2022/04/03 13:14:23;;;;;;;6.47;2.70;;;;;;;;;;5116274;27;20047;-75
2022/04/03 13:16:59;;;;;;;9.38;1.73;;;;;;;;;;5115878;27;20051;-74
2022/04/03 13:19:33;;;;;;;5.28;2.00;;;;;;;;;;5126510;27;20393;-74
2022/04/03 13:22:05;;;;;;;4.70;1.60;;;;;;;;;;5128697;27;20031;-74
2022/04/03 13:24:35;;;;;;;4.40;1.30;;;;;;;;;;5118386;27;20031;-73
2022/04/03 13:27:05;;;;;;;9.68;1.75;;;;;;;;;;5117230;27;20055;-73
2022/04/03 13:29:38;;;;;;;11.75;2.30;;;;;;;;;;5118033;27;20498;-75
2022/04/03 13:32:09;;;;;;;9.45;3.17;;;;;;;;;;5097999;27;20054;-73
2022/04/03 13:34:39;;;;;;;9.95;2.15;;;;;;;;;;5115142;27;20047;-72
2022/04/03 13:37:09;;;;;;;9.35;2.17;;;;;;;;;;5107210;28;20047;-74
2022/04/03 13:39:39;;;;;;;7.15;1.70;;;;;;;;;;5107254;28;20056;-73
2022/04/03 13:42:11;;;;;;;8.38;2.05;;;;;;;;;;5107480;28;20059;-74
2022/04/03 13:44:41;;;;;;;7.28;3.60;;;;;;;;;;5107658;28;20051;-74
2022/04/03 13:47:12;;;;;;;10.13;2.60;;;;;;;;;;5089059;28;20051;-74
2022/04/03 13:49:42;;;;;;;11.37;3.30;;;;;;;;;;5118207;27;20547;-73
2022/04/03 13:52:13;;;;;;;8.07;3.13;;;;;;;;;;5118015;27;20050;-73
2022/04/03 13:54:43;;;;;;;16.02;5.65;;;;;;;;;;5088621;28;20062;-75
2022/04/03 13:57:13;;;;;;;12.55;3.25;;;;;;;;;;5107317;28;20055;-72
2022/04/03 13:59:43;;;;;;;12.02;3.63;;;;;;;;;;5107908;28;20047;-73
2022/04/03 14:02:14;;;;;;;9.57;3.75;;;;;;;;;;5106727;28;20410;-73
2022/04/03 14:04:44;;;;;;;;;;;;;;;;;;5110154;27;20050;-74
2022/04/03 14:07:14;;;;;;;11.00;1.73;;;;;;;;;;5112641;27;20332;-73
2022/04/03 14:09:43;;;;;;;8.95;1.75;;;;;;;;;;5125802;27;20035;-74
2022/04/03 14:12:13;;;;;;;7.80;1.70;;;;;;;;;;5122768;27;20039;-74
2022/04/03 14:14:43;;;;;;;5.05;1.88;;;;;;;;;;5128170;27;20046;-74
2022/04/03 14:17:13;;;;;;;4.47;1.80;;;;;;;;;;5127878;27;20043;-74
2022/04/03 14:19:43;;;;;;;7.18;1.85;;;;;;;;;;5128016;27;20046;-74
2022/04/03 14:22:13;;;;;;;11.80;2.17;;;;;;;;;;5120062;27;20039;-75
2022/04/03 14:24:43;;;;;;;8.27;2.22;;;;;;;;;;5142002;27;20035;-75
2022/04/03 14:27:13;;;;;;;11.82;1.88;;;;;;;;;;5134748;27;20409;-73
2022/04/03 14:29:43;;;;;;;4.28;1.30;;;;;;;;;;5126497;27;20047;-74
2022/04/03 14:32:13;;;;;;;4.15;1.58;;;;;;;;;;5124358;27;20051;-75
2022/04/03 14:34:46;;;;;;;5.35;1.30;;;;;;;;;;5127227;27;20817;-74
2022/04/03 14:37:17;;;;;;;4.75;1.20;;;;;;;;;;5123006;27;20031;-74
2022/04/03 14:39:48;;;;;;;3.35;1.63;;;;;;;;;;5107559;28;21150;-74
2022/04/03 14:42:18;;;;;;;5.32;1.08;;;;;;;;;;5105445;28;20051;-73
2022/04/03 14:45:09;;;;;;;4.30;1.30;;;;;;;;;;5106115;28;20048;-75
2022/04/03 14:47:43;;;;;;;6.18;2.28;;;;;;;;;;5106905;28;20043;-74
2022/04/03 14:50:14;;;;;;;7.80;1.80;;;;;;;;;;5092941;28;20043;-75
2022/04/03 14:52:45;;;;;;;;;;;;;;;;;;5105428;28;20638;-73
2022/04/03 14:55:15;;;;;;;5.68;1.98;;;;;;;;;;5122061;28;19924;-73
2022/04/03 14:57:45;;;;;;;4.88;1.40;;;;;;;;;;5086365;28;20040;-74
2022/04/03 15:00:16;;;;;;;4.07;1.98;;;;;;;;;;5068334;28;20427;-75
2022/04/03 15:02:52;;;;;;;4.93;1.83;;;;;;;;;;5086589;28;20043;-74
2022/04/03 15:05:22;;;;;;;2.80;1.35;;;;;;;;;;5104568;28;20066;-74
2022/04/03 15:07:53;;;;;;;10.98;7.18;;;;;;;;;;5103762;28;20042;-74
2022/04/03 15:10:23;;;;;;;5.40;1.70;;;;;;;;;;5103411;28;20047;-74
2022/04/03 15:12:53;;;;;;;4.78;1.00;;;;;;;;;;5086553;28;20044;-75